Time;durP1;ratioP1;P1;durP2;ratioP2;P2;SDS_P1;SDS_P2;PMS_P1;PMS_P2;Temp;Humidity;BMP_temperature;BMP_pressure;BME280_temperature;BME280_humidity;BME280_pressure;Samples;Min_cycle;Max_cycle;Signal;HPM_P1;HPM_P2
2022/12/08 00:01:23;;;;;;;;;37.50;32.75;;;;;-147.17;100.00;-15917.19;5005800;28;51133;-39
2022/12/08 00:03:48;;;;;;;;;36.00;32.25;;;;;-147.17;100.00;-15917.19;5009288;28;51193;-39
2022/12/08 00:09:22;;;;;;;;;39.25;36.25;;;;;-147.17;100.00;-15917.19;5008887;28;51616;-39
2022/12/08 00:11:53;;;;;;;;;39.50;37.50;;;;;-147.17;100.00;-15917.19;5004244;28;51239;-39
2022/12/08 00:14:19;;;;;;;;;43.00;37.50;;;;;-147.17;100.00;-15917.19;5011293;28;51040;-40
2022/12/08 00:16:44;;;;;;;;;43.25;38.00;;;;;-147.17;100.00;-15917.19;5008670;28;51133;-39
2022/12/08 00:19:10;;;;;;;;;46.50;40.75;;;;;-147.17;100.00;-15917.19;5010597;28;51848;-38
2022/12/08 00:21:35;;;;;;;;;39.25;36.75;;;;;-147.17;100.00;-15917.19;5011922;28;51238;-39
2022/12/08 00:24:00;;;;;;;;;44.75;40.25;;;;;-147.17;100.00;-15917.19;5012337;28;50924;-38
2022/12/08 00:26:26;;;;;;;;;46.75;39.25;;;;;-147.17;100.00;-15917.19;5011462;28;51307;-39
2022/12/08 00:28:51;;;;;;;;;40.25;38.00;;;;;-147.17;100.00;-15917.19;5011046;28;52124;-39
2022/12/08 00:31:20;;;;;;;;;41.00;39.25;;;;;-147.17;100.00;-15917.19;5011621;28;51074;-39
2022/12/08 00:33:45;;;;;;;;;45.50;38.50;;;;;-147.17;100.00;-15917.19;5011260;28;51221;-39
2022/12/08 00:36:13;;;;;;;;;37.50;34.00;;;;;-147.17;100.00;-15917.19;5012726;28;51278;-39
2022/12/08 00:38:40;;;;;;;;;46.00;40.25;;;;;-147.17;100.00;-15917.19;5010220;28;51169;-39
2022/12/08 00:41:17;;;;;;;;;33.50;33.00;;;;;-147.17;100.00;-15917.19;5011996;28;51196;-39
2022/12/08 00:43:43;;;;;;;;;49.25;40.25;;;;;-147.17;100.00;-15917.19;4993171;28;51166;-38
2022/12/08 00:46:08;;;;;;;;;44.00;41.00;;;;;-147.17;100.00;-15917.19;5011499;28;51336;-39
2022/12/08 00:48:34;;;;;;;;;53.00;43.00;;;;;-147.17;100.00;-15917.19;5004664;28;52299;-39
2022/12/08 00:50:59;;;;;;;;;50.25;44.75;;;;;-147.17;100.00;-15917.19;5002346;28;52559;-45
2022/12/08 00:53:25;;;;;;;;;57.00;44.50;;;;;-147.17;100.00;-15917.19;5011171;28;51098;-39
2022/12/08 00:55:50;;;;;;;;;52.50;42.00;;;;;-147.17;100.00;-15917.19;5012466;28;51097;-39
2022/12/08 00:58:15;;;;;;;;;54.75;46.00;;;;;-147.17;100.00;-15917.19;5011408;28;51053;-39
2022/12/08 01:00:42;;;;;;;;;59.25;47.50;;;;;-147.17;100.00;-15917.19;5010142;28;51213;-39
2022/12/08 01:03:11;;;;;;;;;61.50;46.25;;;;;-147.17;100.00;-15917.19;5010166;28;51227;-39
2022/12/08 01:05:36;;;;;;;;;56.50;47.00;;;;;-147.17;100.00;-15917.19;5011144;28;51413;-38
2022/12/08 01:08:05;;;;;;;;;57.25;45.00;;;;;-147.17;100.00;-15917.19;5010269;28;51918;-38
2022/12/08 01:10:30;;;;;;;;;51.25;43.50;;;;;-147.17;100.00;-15917.19;5011160;28;51015;-40
2022/12/08 01:12:57;;;;;;;;;56.75;45.25;;;;;-147.17;100.00;-15917.19;5007766;28;51098;-38
2022/12/08 01:15:22;;;;;;;;;53.00;43.75;;;;;-147.17;100.00;-15917.19;5010887;28;51035;-38
2022/12/08 01:17:48;;;;;;;;;50.75;42.50;;;;;-147.17;100.00;-15917.19;5002114;28;51109;-38
2022/12/08 01:20:13;;;;;;;;;56.75;47.75;;;;;-147.17;100.00;-15917.19;5011248;28;50900;-38
2022/12/08 01:22:39;;;;;;;;;55.50;44.75;;;;;-147.17;100.00;-15917.19;5007454;28;51217;-38
2022/12/08 01:25:05;;;;;;;;;58.00;48.00;;;;;-147.17;100.00;-15917.19;5009729;28;51546;-39
2022/12/08 01:27:30;;;;;;;;;56.00;47.25;;;;;-147.17;100.00;-15917.19;5008898;28;51506;-38
2022/12/08 01:29:56;;;;;;;;;58.50;49.25;;;;;-147.17;100.00;-15917.19;5009716;28;51101;-45
2022/12/08 01:32:21;;;;;;;;;51.50;43.75;;;;;-147.17;100.00;-15917.19;5009801;28;51183;-38
2022/12/08 01:34:46;;;;;;;;;64.25;52.00;;;;;-147.17;100.00;-15917.19;5014028;28;51357;-41
2022/12/08 01:37:12;;;;;;;;;59.75;49.50;;;;;-147.17;100.00;-15917.19;5013365;28;51279;-38
2022/12/08 01:39:39;;;;;;;;;68.50;53.75;;;;;-147.17;100.00;-15917.19;5013369;28;50968;-38
2022/12/08 01:42:05;;;;;;;;;63.25;50.00;;;;;-147.17;100.00;-15917.19;5014114;28;51030;-38
2022/12/08 01:44:33;;;;;;;;;63.75;52.50;;;;;-147.17;100.00;-15917.19;5012991;28;50982;-38
2022/12/08 01:46:59;;;;;;;;;64.50;50.00;;;;;-147.17;100.00;-15917.19;5014329;28;52214;-39
2022/12/08 01:49:33;;;;;;;;;64.00;53.25;;;;;-147.17;100.00;-15917.19;5012470;28;50988;-38
2022/12/08 01:52:08;;;;;;;;;57.50;48.75;;;;;-147.17;100.00;-15917.19;5013409;28;52379;-38
2022/12/08 01:54:38;;;;;;;;;64.25;52.75;;;;;-147.17;100.00;-15917.19;5013408;28;51134;-39
2022/12/08 01:57:19;;;;;;;;;57.75;48.25;;;;;-147.17;100.00;-15917.19;5011104;28;52608;-38
2022/12/08 01:59:50;;;;;;;;;59.00;49.00;;;;;-147.17;100.00;-15917.19;5009201;28;51113;-38
2022/12/08 02:02:16;;;;;;;;;63.25;46.50;;;;;-147.17;100.00;-15917.19;5012404;28;51027;-38
2022/12/08 02:04:41;;;;;;;;;58.25;46.75;;;;;-147.17;100.00;-15917.19;5012106;28;51219;-38
2022/12/08 02:07:09;;;;;;;;;63.00;49.75;;;;;-147.17;100.00;-15917.19;5012924;28;51877;-38
2022/12/08 02:09:36;;;;;;;;;63.75;50.25;;;;;-147.17;100.00;-15917.19;5013887;28;51123;-39
2022/12/08 02:12:01;;;;;;;;;53.00;45.00;;;;;-147.17;100.00;-15917.19;4996339;28;51224;-38
2022/12/08 02:14:27;;;;;;;;;57.50;46.00;;;;;-147.17;100.00;-15917.19;4994182;28;51060;-38
2022/12/08 02:17:01;;;;;;;;;45.75;40.75;;;;;-147.17;100.00;-15917.19;5009213;28;51737;-37
2022/12/08 02:20:23;;;;;;;;;56.25;45.50;;;;;-147.17;100.00;-15917.19;5012043;28;51215;-38
2022/12/08 02:22:54;;;;;;;;;55.25;45.00;;;;;-147.17;100.00;-15917.19;4997480;28;51193;-38
2022/12/08 02:25:34;;;;;;;;;53.50;44.00;;;;;-147.17;100.00;-15917.19;5014161;28;51176;-37
2022/12/08 02:28:27;;;;;;;;;56.75;45.00;;;;;-147.17;100.00;-15917.19;5001027;28;52237;-37
2022/12/08 02:30:57;;;;;;;;;52.00;42.00;;;;;-147.17;100.00;-15917.19;5013764;28;50962;-38
2022/12/08 02:33:57;;;;;;;;;48.50;40.75;;;;;-147.17;100.00;-15917.19;5014117;28;51199;-38
2022/12/08 02:36:39;;;;;;;;;48.00;40.00;;;;;-147.17;100.00;-15917.19;5010263;28;51082;-39
2022/12/08 02:39:37;;;;;;;;;50.75;44.50;;;;;-147.17;100.00;-15917.19;5013646;28;51090;-42
2022/12/08 02:42:26;;;;;;;;;45.25;38.75;;;;;-147.17;100.00;-15917.19;5006043;28;51309;-38
2022/12/08 02:45:05;;;;;;;;;47.75;40.75;;;;;-147.17;100.00;-15917.19;5011121;28;51144;-38
2022/12/08 02:47:33;;;;;;;;;44.25;40.25;;;;;-147.17;100.00;-15917.19;5013410;28;50921;-38
2022/12/08 02:49:58;;;;;;;;;51.50;42.25;;;;;-147.17;100.00;-15917.19;5013471;28;52031;-38
2022/12/08 02:52:24;;;;;;;;;54.00;44.75;;;;;-147.17;100.00;-15917.19;5018280;28;51234;-40
2022/12/08 02:54:54;;;;;;;;;66.25;52.00;;;;;-147.17;100.00;-15917.19;5012338;28;51510;-38
2022/12/08 02:57:41;;;;;;;;;54.00;44.75;;;;;-147.17;100.00;-15917.19;5010006;28;51241;-38
2022/12/08 03:00:12;;;;;;;;;56.25;46.25;;;;;-147.17;100.00;-15917.19;5010446;28;51861;-39
2022/12/08 03:03:08;;;;;;;;;47.25;41.50;;;;;-147.17;100.00;-15917.19;5009140;28;51220;-39
2022/12/08 03:06:12;;;;;;;;;50.25;42.00;;;;;-147.17;100.00;-15917.19;5009780;28;51116;-38
2022/12/08 03:08:46;;;;;;;;;48.50;41.25;;;;;-147.17;100.00;-15917.19;5013028;28;51204;-38
2022/12/08 03:11:22;;;;;;;;;51.75;38.50;;;;;-147.17;100.00;-15917.19;5011746;28;51428;-38
2022/12/08 03:13:53;;;;;;;;;44.50;40.75;;;;;-147.17;100.00;-15917.19;4994334;28;51049;-38
2022/12/08 03:16:29;;;;;;;;;51.25;42.75;;;;;-147.17;100.00;-15917.19;5011026;28;51018;-38
2022/12/08 03:19:09;;;;;;;;;42.00;40.00;;;;;-147.17;100.00;-15917.19;5011974;28;50947;-38
2022/12/08 03:21:37;;;;;;;;;48.75;42.50;;;;;-147.17;100.00;-15917.19;4993619;28;53316;-38
2022/12/08 03:24:06;;;;;;;;;59.00;44.75;;;;;-147.17;100.00;-15917.19;5012531;28;51029;-38
2022/12/08 03:26:39;;;;;;;;;58.50;45.75;;;;;-147.17;100.00;-15917.19;5013160;28;51090;-38
2022/12/08 03:29:05;;;;;;;;;43.75;35.75;;;;;-147.17;100.00;-15917.19;5007024;28;50880;-38
2022/12/08 03:31:36;;;;;;;;;51.00;42.00;;;;;-147.17;100.00;-15917.19;5006984;28;51127;-38
2022/12/08 03:34:03;;;;;;;;;45.25;41.00;;;;;-147.17;100.00;-15917.19;5011295;28;51212;-38
2022/12/08 03:36:29;;;;;;;;;51.25;40.75;;;;;-147.17;100.00;-15917.19;5010418;28;51079;-37
2022/12/08 03:38:55;;;;;;;;;47.25;39.25;;;;;-147.17;100.00;-15917.19;5011534;28;51332;-37
2022/12/08 03:41:21;;;;;;;;;52.25;42.50;;;;;-147.17;100.00;-15917.19;5008378;28;51264;-37
2022/12/08 03:43:49;;;;;;;;;55.75;45.25;;;;;-147.17;100.00;-15917.19;5005141;28;51370;-37
2022/12/08 03:46:16;;;;;;;;;47.00;41.25;;;;;-147.17;100.00;-15917.19;5003223;28;51211;-37
2022/12/08 03:48:41;;;;;;;;;49.25;42.50;;;;;-147.17;100.00;-15917.19;5005857;28;51382;-38
2022/12/08 03:51:07;;;;;;;;;49.75;41.00;;;;;-147.17;100.00;-15917.19;5008034;28;51226;-38
2022/12/08 03:53:32;;;;;;;;;51.25;40.25;;;;;-147.17;100.00;-15917.19;5012030;28;51011;-38
2022/12/08 03:55:58;;;;;;;;;53.75;42.75;;;;;-147.17;100.00;-15917.19;5011393;28;50967;-38
2022/12/08 03:58:23;;;;;;;;;55.50;44.25;;;;;-147.17;100.00;-15917.19;5010659;28;50992;-38
2022/12/08 04:00:49;;;;;;;;;51.50;42.50;;;;;-147.17;100.00;-15917.19;5011539;28;51038;-38
2022/12/08 04:03:14;;;;;;;;;52.25;42.00;;;;;-147.17;100.00;-15917.19;5012075;28;51101;-38
2022/12/08 04:05:39;;;;;;;;;55.00;46.50;;;;;-147.17;100.00;-15917.19;5012216;28;51047;-38
2022/12/08 04:08:05;;;;;;;;;49.50;41.50;;;;;-147.17;100.00;-15917.19;5010873;28;51065;-38
2022/12/08 04:10:30;;;;;;;;;55.25;45.25;;;;;-147.17;100.00;-15917.19;5011896;28;51454;-38
2022/12/08 04:12:56;;;;;;;;;45.75;41.50;;;;;-147.17;100.00;-15917.19;4994127;28;51125;-38
2022/12/08 04:15:22;;;;;;;;;34.25;29.50;;;;;-147.17;100.00;-15917.19;5010759;28;51124;-38
2022/12/08 04:17:47;;;;;;;;;48.75;43.50;;;;;-147.17;100.00;-15917.19;5010865;28;51098;-38
2022/12/08 04:20:13;;;;;;;;;51.75;42.50;;;;;-147.17;100.00;-15917.19;5011467;28;52552;-38
2022/12/08 04:22:39;;;;;;;;;45.50;37.50;;;;;-147.17;100.00;-15917.19;5010759;28;51203;-38
2022/12/08 04:25:05;;;;;;;;;43.75;40.75;;;;;-147.17;100.00;-15917.19;5011508;28;51790;-38
2022/12/08 04:27:30;;;;;;;;;42.00;37.75;;;;;-147.17;100.00;-15917.19;5011545;28;51333;-38
2022/12/08 04:29:55;;;;;;;;;46.00;41.00;;;;;-147.17;100.00;-15917.19;5011816;28;51542;-39
2022/12/08 04:32:21;;;;;;;;;54.25;44.00;;;;;-147.17;100.00;-15917.19;5012033;28;51101;-37
2022/12/08 04:34:46;;;;;;;;;46.50;38.50;;;;;-147.17;100.00;-15917.19;5011928;28;51201;-38
2022/12/08 04:37:11;;;;;;;;;36.50;34.25;;;;;-147.17;100.00;-15917.19;5012515;28;51440;-38
2022/12/08 04:39:37;;;;;;;;;47.75;41.75;;;;;-147.17;100.00;-15917.19;5012484;28;51203;-38
2022/12/08 04:42:02;;;;;;;;;45.00;39.25;;;;;-147.17;100.00;-15917.19;5012039;28;50933;-38
2022/12/08 04:44:28;;;;;;;;;35.00;32.50;;;;;-147.17;100.00;-15917.19;5011735;28;51092;-38
2022/12/08 04:46:53;;;;;;;;;47.50;41.00;;;;;-147.17;100.00;-15917.19;5009382;28;51256;-38
2022/12/08 04:49:18;;;;;;;;;47.00;41.00;;;;;-147.17;100.00;-15917.19;5003087;28;52895;-38
2022/12/08 04:51:44;;;;;;;;;49.25;41.00;;;;;-147.17;100.00;-15917.19;5000936;28;51169;-38
2022/12/08 04:54:09;;;;;;;;;45.00;38.50;;;;;-147.17;100.00;-15917.19;5010240;28;51200;-38
2022/12/08 04:56:35;;;;;;;;;42.50;38.25;;;;;-147.17;100.00;-15917.19;5010446;28;51233;-38
2022/12/08 04:59:01;;;;;;;;;50.00;37.25;;;;;-147.17;100.00;-15917.19;5009401;28;52817;-37
2022/12/08 05:01:27;;;;;;;;;49.00;41.75;;;;;-147.17;100.00;-15917.19;5009896;28;51186;-38
2022/12/08 05:03:52;;;;;;;;;56.75;45.00;;;;;-147.17;100.00;-15917.19;5014885;28;51029;-38
2022/12/08 05:06:17;;;;;;;;;43.50;39.25;;;;;-147.17;100.00;-15917.19;5014721;28;51316;-38
2022/12/08 05:08:43;;;;;;;;;50.00;43.00;;;;;-147.17;100.00;-15917.19;5014598;28;51940;-38
2022/12/08 05:11:10;;;;;;;;;43.50;40.00;;;;;-147.17;100.00;-15917.19;5014854;28;51193;-39
2022/12/08 05:13:36;;;;;;;;;45.25;40.25;;;;;-147.17;100.00;-15917.19;4996747;28;51043;-38
2022/12/08 05:16:03;;;;;;;;;49.50;42.75;;;;;-147.17;100.00;-15917.19;5014788;28;51235;-38
2022/12/08 05:18:28;;;;;;;;;48.75;39.75;;;;;-147.17;100.00;-15917.19;5013359;28;51865;-38
2022/12/08 05:20:54;;;;;;;;;44.75;38.50;;;;;-147.17;100.00;-15917.19;5014873;28;51015;-38
2022/12/08 05:23:19;;;;;;;;;50.00;40.50;;;;;-147.17;100.00;-15917.19;5014724;28;51085;-38
2022/12/08 05:25:45;;;;;;;;;41.00;36.00;;;;;-147.17;100.00;-15917.19;5014142;28;51076;-38
2022/12/08 05:28:10;;;;;;;;;36.50;32.00;;;;;-147.17;100.00;-15917.19;5013741;28;51403;-38
2022/12/08 05:30:35;;;;;;;;;21.25;16.25;;;;;-147.17;100.00;-15917.19;5014065;28;51159;-38
2022/12/08 05:33:01;;;;;;;;;40.75;38.00;;;;;-147.17;100.00;-15917.19;5013124;28;51110;-39
2022/12/08 05:35:26;;;;;;;;;40.50;36.25;;;;;-147.17;100.00;-15917.19;5015139;28;51217;-38
2022/12/08 05:37:52;;;;;;;;;27.75;26.50;;;;;-147.17;100.00;-15917.19;5014619;28;52087;-38
2022/12/08 05:40:18;;;;;;;;;42.25;37.50;;;;;-147.17;100.00;-15917.19;5014791;28;51149;-38
2022/12/08 05:42:43;;;;;;;;;49.50;42.00;;;;;-147.17;100.00;-15917.19;5013451;28;51010;-38
2022/12/08 05:45:09;;;;;;;;;44.75;39.00;;;;;-147.17;100.00;-15917.19;5013351;28;51268;-39
2022/12/08 05:47:34;;;;;;;;;50.50;39.25;;;;;-147.17;100.00;-15917.19;5014882;28;51034;-39
2022/12/08 05:50:00;;;;;;;;;40.75;39.00;;;;;-147.17;100.00;-15917.19;5015012;28;51157;-39
2022/12/08 05:52:26;;;;;;;;;44.50;38.00;;;;;-147.17;100.00;-15917.19;5010860;28;50971;-39
2022/12/08 05:54:52;;;;;;;;;47.25;41.75;;;;;-147.17;100.00;-15917.19;5013939;28;50990;-38
2022/12/08 05:57:17;;;;;;;;;42.25;39.25;;;;;-147.17;100.00;-15917.19;5014374;28;51089;-39
2022/12/08 05:59:43;;;;;;;;;48.25;37.75;;;;;-147.17;100.00;-15917.19;5014392;28;51056;-39
2022/12/08 06:02:08;;;;;;;;;46.00;37.50;;;;;-147.17;100.00;-15917.19;5014371;28;50937;-39
2022/12/08 06:04:35;;;;;;;;;49.75;41.00;;;;;-147.17;100.00;-15917.19;5014634;28;51175;-38
2022/12/08 06:07:00;;;;;;;;;47.25;35.75;;;;;-147.17;100.00;-15917.19;5014196;28;51214;-38
2022/12/08 06:09:25;;;;;;;;;55.50;44.75;;;;;-147.17;100.00;-15917.19;5014407;28;51081;-38
2022/12/08 06:11:51;;;;;;;;;48.75;39.25;;;;;-147.17;100.00;-15917.19;5014596;28;51121;-38
2022/12/08 06:14:16;;;;;;;;;49.75;42.00;;;;;-147.17;100.00;-15917.19;5013572;28;51242;-37
2022/12/08 06:16:41;;;;;;;;;43.50;39.25;;;;;-147.17;100.00;-15917.19;5013696;28;51324;-38
2022/12/08 06:19:07;;;;;;;;;38.00;36.50;;;;;-147.17;100.00;-15917.19;5014193;28;51054;-38
2022/12/08 06:21:32;;;;;;;;;45.50;38.50;;;;;-147.17;100.00;-15917.19;5014668;28;51196;-39
2022/12/08 06:23:58;;;;;;;;;47.50;40.75;;;;;-147.17;100.00;-15917.19;5014461;28;51176;-39
2022/12/08 06:26:23;;;;;;;;;45.25;40.25;;;;;-147.17;100.00;-15917.19;5014494;28;51029;-39
2022/12/08 06:28:50;;;;;;;;;44.75;40.00;;;;;-147.17;100.00;-15917.19;5013460;28;51133;-39
2022/12/08 06:31:21;;;;;;;;;44.75;38.75;;;;;-147.17;100.00;-15917.19;5013814;28;51110;-40
2022/12/08 06:33:47;;;;;;;;;48.25;40.00;;;;;-147.17;100.00;-15917.19;5014261;28;51304;-37
2022/12/08 06:36:14;;;;;;;;;45.25;38.25;;;;;-147.17;100.00;-15917.19;5013526;28;52124;-39
2022/12/08 06:38:40;;;;;;;;;43.50;37.75;;;;;-147.17;100.00;-15917.19;5013048;28;51203;-39
2022/12/08 06:41:06;;;;;;;;;41.25;37.75;;;;;-147.17;100.00;-15917.19;5014077;28;51077;-39
2022/12/08 06:43:32;;;;;;;;;39.00;34.50;;;;;-147.17;100.00;-15917.19;5014196;28;51261;-39
2022/12/08 06:45:58;;;;;;;;;41.25;35.75;;;;;-147.17;100.00;-15917.19;5013641;28;51471;-39
2022/12/08 06:48:24;;;;;;;;;38.00;33.50;;;;;-147.17;100.00;-15917.19;5012892;28;51086;-39
2022/12/08 06:50:49;;;;;;;;;30.00;29.25;;;;;-147.17;100.00;-15917.19;5013886;28;51336;-39
2022/12/08 06:53:15;;;;;;;;;35.00;31.75;;;;;-147.17;100.00;-15917.19;4999690;28;51105;-39
2022/12/08 06:55:50;;;;;;;;;36.00;32.25;;;;;-147.17;100.00;-15917.19;5013507;28;51852;-39
2022/12/08 06:58:16;;;;;;;;;40.75;35.25;;;;;-147.17;100.00;-15917.19;5013406;28;51006;-39
2022/12/08 07:00:42;;;;;;;;;41.75;34.25;;;;;-147.17;100.00;-15917.19;5005264;28;51124;-40
2022/12/08 07:03:08;;;;;;;;;39.75;38.50;;;;;-147.17;100.00;-15917.19;5011296;28;51030;-39
2022/12/08 07:05:34;;;;;;;;;35.50;33.75;;;;;-147.17;100.00;-15917.19;5013197;28;51986;-39
2022/12/08 07:08:00;;;;;;;;;41.75;38.00;;;;;-147.17;100.00;-15917.19;5013134;28;51265;-39
2022/12/08 07:10:26;;;;;;;;;41.25;36.75;;;;;-147.17;100.00;-15917.19;5013499;28;51086;-39
2022/12/08 07:12:51;;;;;;;;;44.75;40.75;;;;;-147.17;100.00;-15917.19;5007524;28;51051;-39
2022/12/08 07:15:18;;;;;;;;;46.50;41.00;;;;;-147.17;100.00;-15917.19;5012015;28;50960;-38
2022/12/08 07:17:43;;;;;;;;;40.50;37.00;;;;;-147.17;100.00;-15917.19;5011639;28;51114;-38
2022/12/08 07:20:09;;;;;;;;;41.50;37.00;;;;;-147.17;100.00;-15917.19;5012560;28;51128;-38
2022/12/08 07:22:34;;;;;;;;;45.00;39.00;;;;;-147.17;100.00;-15917.19;5013320;28;51117;-38
2022/12/08 07:25:00;;;;;;;;;39.25;36.00;;;;;-147.17;100.00;-15917.19;5012559;28;51878;-38
2022/12/08 07:27:25;;;;;;;;;44.25;38.00;;;;;-147.17;100.00;-15917.19;5012986;28;51060;-38
2022/12/08 07:29:51;;;;;;;;;44.00;37.00;;;;;-147.17;100.00;-15917.19;5012549;28;51173;-38
2022/12/08 07:32:16;;;;;;;;;38.50;35.50;;;;;-147.17;100.00;-15917.19;5010124;28;51142;-38
2022/12/08 07:34:41;;;;;;;;;41.75;35.75;;;;;-147.17;100.00;-15917.19;5000812;28;51130;-39
2022/12/08 07:37:07;;;;;;;;;33.00;30.00;;;;;-147.17;100.00;-15917.19;5012798;28;51047;-39
2022/12/08 07:39:32;;;;;;;;;34.50;29.75;;;;;-147.17;100.00;-15917.19;5013040;28;51185;-39
2022/12/08 07:41:58;;;;;;;;;42.75;36.00;;;;;-147.17;100.00;-15917.19;5013264;28;51019;-39
2022/12/08 07:44:23;;;;;;;;;35.75;33.25;;;;;-147.17;100.00;-15917.19;5012435;28;51212;-39
2022/12/08 07:46:48;;;;;;;;;41.00;34.75;;;;;-147.17;100.00;-15917.19;5012691;28;51054;-39
2022/12/08 07:49:14;;;;;;;;;40.50;36.00;;;;;-147.17;100.00;-15917.19;5012428;28;50983;-39
2022/12/08 07:51:39;;;;;;;;;36.50;34.00;;;;;-147.17;100.00;-15917.19;5012944;28;51304;-43
2022/12/08 07:54:05;;;;;;;;;40.00;35.00;;;;;-147.17;100.00;-15917.19;5009085;28;51604;-39
2022/12/08 07:56:30;;;;;;;;;34.75;30.75;;;;;-147.17;100.00;-15917.19;5012988;28;51134;-44
2022/12/08 07:58:55;;;;;;;;;35.50;34.25;;;;;-147.17;100.00;-15917.19;5013035;28;51204;-39
2022/12/08 08:01:30;;;;;;;;;35.75;34.50;;;;;-147.17;100.00;-15917.19;5007035;28;51143;-44
2022/12/08 08:03:57;;;;;;;;;28.00;24.75;;;;;-147.17;100.00;-15917.19;5006276;28;51039;-39
2022/12/08 08:06:23;;;;;;;;;43.00;35.50;;;;;-147.17;100.00;-15917.19;5012783;28;51308;-38
2022/12/08 08:08:48;;;;;;;;;33.25;30.25;;;;;-147.17;100.00;-15917.19;5012330;28;50995;-38
2022/12/08 08:11:14;;;;;;;;;35.00;28.75;;;;;-147.17;100.00;-15917.19;5013001;28;51149;-38
2022/12/08 08:13:39;;;;;;;;;33.75;30.50;;;;;-147.17;100.00;-15917.19;5012511;28;50948;-38
2022/12/08 08:16:07;;;;;;;;;34.25;30.25;;;;;-147.17;100.00;-15917.19;5006598;28;51012;-38
2022/12/08 08:18:33;;;;;;;;;31.75;27.75;;;;;-147.17;100.00;-15917.19;5011096;28;51215;-39
2022/12/08 08:20:59;;;;;;;;;36.00;32.75;;;;;-147.17;100.00;-15917.19;5011815;28;51018;-38
2022/12/08 08:23:25;;;;;;;;;36.25;31.50;;;;;-147.17;100.00;-15917.19;5011109;28;51130;-38
2022/12/08 08:25:50;;;;;;;;;32.25;30.75;;;;;-147.17;100.00;-15917.19;5011534;28;51026;-38
2022/12/08 08:28:15;;;;;;;;;35.25;31.75;;;;;-147.17;100.00;-15917.19;5012187;28;51450;-38
2022/12/08 08:30:41;;;;;;;;;34.75;31.50;;;;;-147.17;100.00;-15917.19;5012309;28;51411;-38
2022/12/08 08:33:06;;;;;;;;;36.25;33.00;;;;;-147.17;100.00;-15917.19;5012033;28;51963;-39
2022/12/08 08:35:33;;;;;;;;;38.00;36.00;;;;;-147.17;100.00;-15917.19;5012308;28;51042;-39
2022/12/08 08:37:59;;;;;;;;;33.25;32.00;;;;;-147.17;100.00;-15917.19;5016328;28;51026;-39
2022/12/08 08:40:25;;;;;;;;;38.75;33.75;;;;;-147.17;100.00;-15917.19;5018710;28;50896;-37
2022/12/08 08:42:51;;;;;;;;;40.25;37.75;;;;;-147.17;100.00;-15917.19;5017303;28;51278;-38
2022/12/08 08:45:16;;;;;;;;;32.50;26.00;;;;;-147.17;100.00;-15917.19;5018597;28;51125;-39
2022/12/08 08:47:41;;;;;;;;;35.25;30.75;;;;;-147.17;100.00;-15917.19;5018718;28;51156;-38
2022/12/08 08:50:07;;;;;;;;;38.00;34.25;;;;;-147.17;100.00;-15917.19;5018892;28;51107;-38
2022/12/08 08:52:32;;;;;;;;;30.50;27.75;;;;;-147.17;100.00;-15917.19;5002618;28;51885;-38
2022/12/08 08:54:58;;;;;;;;;44.25;38.50;;;;;-147.17;100.00;-15917.19;5013312;28;51151;-38
2022/12/08 08:57:23;;;;;;;;;37.75;31.00;;;;;-147.17;100.00;-15917.19;5017904;28;51100;-38
2022/12/08 08:59:49;;;;;;;;;35.25;34.00;;;;;-147.17;100.00;-15917.19;5017192;28;51228;-39
2022/12/08 09:02:18;;;;;;;;;29.00;28.25;;;;;-147.17;100.00;-15917.19;5017144;28;51801;-39
2022/12/08 09:04:44;;;;;;;;;34.00;31.25;;;;;-147.17;100.00;-15917.19;5017801;28;50951;-39
2022/12/08 09:07:10;;;;;;;;;31.25;31.25;;;;;-147.17;100.00;-15917.19;5018368;28;51196;-39
2022/12/08 09:09:36;;;;;;;;;27.75;27.00;;;;;-147.17;100.00;-15917.19;5018578;28;51244;-38
2022/12/08 09:12:02;;;;;;;;;41.00;31.25;;;;;-147.17;100.00;-15917.19;5018038;28;51979;-39
2022/12/08 09:14:28;;;;;;;;;39.75;35.25;;;;;-147.17;100.00;-15917.19;5015741;28;51130;-38
2022/12/08 09:16:53;;;;;;;;;38.75;34.50;;;;;-147.17;100.00;-15917.19;5014101;28;51319;-39
2022/12/08 09:19:18;;;;;;;;;35.75;28.25;;;;;-147.17;100.00;-15917.19;5018402;28;50976;-39
2022/12/08 09:21:44;;;;;;;;;31.75;29.00;;;;;-147.17;100.00;-15917.19;5018030;28;51667;-39
2022/12/08 09:24:14;;;;;;;;;31.00;29.25;;;;;-147.17;100.00;-15917.19;5014108;28;51118;-38
2022/12/08 09:26:41;;;;;;;;;29.00;25.50;;;;;-147.17;100.00;-15917.19;5017605;28;50943;-38
2022/12/08 09:29:07;;;;;;;;;36.75;33.25;;;;;-147.17;100.00;-15917.19;5018342;28;51011;-38
2022/12/08 09:31:32;;;;;;;;;29.00;27.00;;;;;-147.17;100.00;-15917.19;4999957;28;53604;-38
2022/12/08 09:33:58;;;;;;;;;28.25;26.75;;;;;-147.17;100.00;-15917.19;5011942;28;51097;-38
2022/12/08 09:36:24;;;;;;;;;29.75;26.75;;;;;-147.17;100.00;-15917.19;5009991;28;51024;-39
2022/12/08 09:38:52;;;;;;;;;25.75;23.75;;;;;-147.17;100.00;-15917.19;5018495;28;51071;-38
2022/12/08 09:41:44;;;;;;;;;32.50;27.00;;;;;-147.17;100.00;-15917.19;5015545;28;51793;-38
2022/12/08 09:44:32;;;;;;;;;30.75;27.50;;;;;-147.17;100.00;-15917.19;5016077;28;51103;-40
2022/12/08 09:46:59;;;;;;;;;30.75;28.00;;;;;-147.17;100.00;-15917.19;5010303;28;51170;-39
2022/12/08 09:49:51;;;;;;;;;29.75;28.25;;;;;-147.17;100.00;-15917.19;5014825;28;50963;-39
2022/12/08 09:52:28;;;;;;;;;34.50;31.50;;;;;-147.17;100.00;-15917.19;4987876;28;50932;-38
2022/12/08 09:55:00;;;;;;;;;33.25;31.25;;;;;-147.17;100.00;-15917.19;5012608;28;50881;-38
2022/12/08 09:57:25;;;;;;;;;31.00;26.50;;;;;-147.17;100.00;-15917.19;5013929;28;51050;-39
2022/12/08 09:59:58;;;;;;;;;28.50;26.75;;;;;-147.17;100.00;-15917.19;5014118;28;51412;-39
2022/12/08 10:02:28;;;;;;;;;34.25;29.25;;;;;-147.17;100.00;-15917.19;5013809;28;51009;-39
2022/12/08 10:04:55;;;;;;;;;29.00;28.50;;;;;-147.17;100.00;-15917.19;5014912;28;51154;-39
2022/12/08 10:07:38;;;;;;;;;27.75;27.75;;;;;-147.17;100.00;-15917.19;5014569;28;51094;-38
2022/12/08 10:10:36;;;;;;;;;28.25;26.50;;;;;-147.17;100.00;-15917.19;5014902;28;50897;-38
2022/12/08 10:13:07;;;;;;;;;35.75;33.75;;;;;-147.17;100.00;-15917.19;5013069;28;51069;-39
2022/12/08 10:15:49;;;;;;;;;33.25;29.75;;;;;-147.17;100.00;-15917.19;5011418;28;50896;-38
2022/12/08 10:18:17;;;;;;;;;37.00;31.00;;;;;-147.17;100.00;-15917.19;5004630;28;51288;-39
2022/12/08 10:20:46;;;;;;;;;31.50;30.00;;;;;-147.17;100.00;-15917.19;5013365;28;51204;-39
2022/12/08 10:23:11;;;;;;;;;32.00;29.00;;;;;-147.17;100.00;-15917.19;5013266;28;51202;-38
2022/12/08 10:25:45;;;;;;;;;33.00;32.00;;;;;-147.17;100.00;-15917.19;5013478;28;51033;-39
2022/12/08 10:28:11;;;;;;;;;37.50;34.25;;;;;-147.17;100.00;-15917.19;5014377;28;51114;-38
2022/12/08 10:30:37;;;;;;;;;30.00;28.75;;;;;-147.17;100.00;-15917.19;5012865;28;51143;-39
2022/12/08 10:33:03;;;;;;;;;33.25;31.00;;;;;-147.17;100.00;-15917.19;5013317;28;51029;-39
2022/12/08 10:35:49;;;;;;;;;31.50;30.25;;;;;-147.17;100.00;-15917.19;5013299;28;50958;-40
2022/12/08 10:38:22;;;;;;;;;34.25;31.75;;;;;-147.17;100.00;-15917.19;4995836;28;51141;-40
2022/12/08 10:40:50;;;;;;;;;39.50;37.00;;;;;-147.17;100.00;-15917.19;5012545;28;51066;-40
2022/12/08 10:43:20;;;;;;;;;33.75;32.25;;;;;-147.17;100.00;-15917.19;5012692;28;51749;-38
2022/12/08 10:45:46;;;;;;;;;38.00;35.00;;;;;-147.17;100.00;-15917.19;5012506;28;51297;-37
2022/12/08 10:48:25;;;;;;;;;54.25;46.25;;;;;-147.17;100.00;-15917.19;5013332;28;51161;-39
2022/12/08 10:50:54;;;;;;;;;44.50;37.75;;;;;-147.17;100.00;-15917.19;4995215;28;51182;-39
2022/12/08 10:53:23;;;;;;;;;39.25;36.00;;;;;-147.17;100.00;-15917.19;5007708;28;51890;-39
2022/12/08 10:55:51;;;;;;;;;41.50;38.00;;;;;-147.17;100.00;-15917.19;5005005;28;51253;-39